Time;durP1;ratioP1;P1;durP2;ratioP2;P2;SDS_P1;SDS_P2;PMS_P1;PMS_P2;Temp;Humidity;BMP_temperature;BMP_pressure;BME280_temperature;BME280_humidity;BME280_pressure;Samples;Min_cycle;Max_cycle;Signal;HPM_P1;HPM_P2
2021/06/23 00:01:37;;;;;;;5.80;2.53;;;21.50;69.30;;;;;;5053467;28;20501;-65
2021/06/23 00:04:02;;;;;;;6.28;2.72;;;21.50;69.20;;;;;;5035372;28;20029;-65
2021/06/23 00:06:28;;;;;;;7.13;3.00;;;21.40;69.20;;;;;;5053321;28;20025;-66
2021/06/23 00:08:53;;;;;;;7.00;2.83;;;21.40;69.20;;;;;;5035185;28;20024;-64
2021/06/23 00:11:20;;;;;;;8.85;3.00;;;21.40;69.20;;;;;;5053176;28;20020;-64
2021/06/23 00:13:46;;;;;;;6.78;2.88;;;21.40;69.20;;;;;;5053206;28;20029;-64
2021/06/23 00:16:12;;;;;;;5.82;2.88;;;21.40;69.20;;;;;;5053159;28;20078;-65
2021/06/23 00:18:38;;;;;;;6.10;3.05;;;21.40;69.30;;;;;;5052728;28;20025;-64
2021/06/23 00:21:04;;;;;;;7.90;2.92;;;21.40;69.40;;;;;;5053007;28;20021;-64
2021/06/23 00:23:29;;;;;;;7.10;2.80;;;21.40;69.50;;;;;;5052531;28;20382;-65
2021/06/23 00:25:56;;;;;;;5.80;2.88;;;21.40;69.40;;;;;;5053010;28;20024;-65
2021/06/23 00:28:22;;;;;;;7.25;2.65;;;21.40;69.40;;;;;;5052653;28;20072;-64
2021/06/23 00:30:48;;;;;;;7.55;3.17;;;21.40;69.40;;;;;;5052728;28;20020;-65
2021/06/23 00:33:19;;;;;;;6.03;2.90;;;21.40;69.30;;;;;;5034919;28;20493;-65
2021/06/23 00:35:46;;;;;;;7.05;3.13;;;21.40;69.30;;;;;;5034913;28;20174;-65
2021/06/23 00:38:12;;;;;;;6.10;3.10;;;21.40;69.40;;;;;;5052489;28;20244;-66
2021/06/23 00:40:37;;;;;;;6.07;3.03;;;21.40;69.40;;;;;;5034555;28;20040;-65
2021/06/23 00:43:03;;;;;;;6.38;2.70;;;21.40;69.50;;;;;;5052617;28;20390;-66
2021/06/23 00:45:30;;;;;;;6.43;3.35;;;21.40;69.50;;;;;;5052521;28;20625;-65
2021/06/23 00:47:57;;;;;;;6.95;3.05;;;21.40;69.50;;;;;;5034526;28;20494;-66
2021/06/23 00:50:23;;;;;;;5.57;2.97;;;21.40;69.50;;;;;;5052248;28;20024;-66
2021/06/23 00:52:52;;;;;;;5.45;2.75;;;21.40;70.10;;;;;;5034664;28;20021;-66
2021/06/23 00:55:22;;;;;;;7.55;3.20;;;21.30;69.50;;;;;;5034564;28;20636;-66
2021/06/23 00:57:53;;;;;;;7.22;3.13;;;21.30;69.60;;;;;;5051995;28;20116;-66
2021/06/23 01:00:27;;;;;;;5.13;2.92;;;21.30;69.70;;;;;;5052210;28;20055;-62
2021/06/23 01:02:54;;;;;;;7.97;3.08;;;21.30;69.70;;;;;;5034458;28;20025;-65
2021/06/23 01:05:20;;;;;;;5.35;2.92;;;21.30;69.80;;;;;;5034364;28;20441;-65
2021/06/23 01:07:47;;;;;;;4.85;2.85;;;21.30;69.90;;;;;;5051974;28;20021;-65
2021/06/23 01:10:13;;;;;;;7.45;3.70;;;21.30;69.90;;;;;;5051896;28;20033;-65
2021/06/23 01:13:09;;;;;;;6.05;3.22;;;21.30;69.90;;;;;;5052153;28;20029;-66
2021/06/23 01:15:37;;;;;;;5.13;3.00;;;21.30;69.90;;;;;;5034406;28;20051;-64
2021/06/23 01:18:04;;;;;;;4.97;2.78;;;21.30;69.90;;;;;;5051804;28;20478;-65
2021/06/23 01:20:29;;;;;;;6.15;2.78;;;21.30;69.90;;;;;;5051869;28;20029;-65
2021/06/23 01:22:55;;;;;;;5.72;2.97;;;21.30;69.90;;;;;;5051428;28;20036;-66
2021/06/23 01:25:20;;;;;;;5.20;3.00;;;21.20;70.00;;;;;;5051818;28;20082;-65
2021/06/23 01:27:46;;;;;;;4.80;2.58;;;21.20;70.00;;;;;;5051622;28;20070;-66
2021/06/23 01:30:14;;;;;;;5.35;2.90;;;21.20;70.10;;;;;;5051764;28;20036;-65
2021/06/23 01:32:40;;;;;;;7.90;3.22;;;21.20;70.10;;;;;;5033966;28;20108;-65
2021/06/23 01:35:06;;;;;;;5.30;3.00;;;21.20;70.00;;;;;;5051671;28;20052;-65
2021/06/23 01:37:32;;;;;;;5.93;3.10;;;21.20;70.10;;;;;;5051510;28;20044;-65
2021/06/23 01:39:59;;;;;;;5.75;2.50;;;21.20;70.10;;;;;;5051353;28;20033;-65
2021/06/23 01:42:24;;;;;;;5.07;2.90;;;21.20;70.10;;;;;;5033817;28;20549;-66
2021/06/23 01:44:50;;;;;;;6.20;3.53;;;21.20;70.10;;;;;;5033812;28;20029;-66
2021/06/23 01:47:16;;;;;;;5.00;2.70;;;21.20;70.10;;;;;;5051326;28;20025;-65
2021/06/23 01:49:41;;;;;;;5.45;2.92;;;21.20;70.20;;;;;;5051451;28;20056;-66
2021/06/23 01:52:07;;;;;;;7.78;3.17;;;21.20;70.20;;;;;;5033776;28;20475;-66
2021/06/23 01:54:33;;;;;;;5.53;2.88;;;21.20;70.10;;;;;;5051559;28;20037;-66
2021/06/23 01:56:59;;;;;;;6.50;3.10;;;21.20;70.20;;;;;;5033423;28;20029;-65
2021/06/23 01:59:26;;;;;;;5.68;2.90;;;21.20;70.20;;;;;;5051425;28;20025;-65
2021/06/23 02:02:17;;;;;;;6.88;2.92;;;21.20;70.30;;;;;;5054485;28;20025;-65
2021/06/23 02:05:01;;;;;;;5.97;2.92;;;21.20;70.30;;;;;;5052502;28;20032;-65
2021/06/23 02:07:57;;;;;;;8.70;3.20;;;21.20;70.40;;;;;;5055395;28;20025;-65
2021/06/23 02:11:04;;;;;;;6.90;2.95;;;21.20;70.40;;;;;;5055342;28;20112;-64
2021/06/23 02:13:29;;;;;;;7.10;3.30;;;21.20;70.50;;;;;;5026739;28;20461;-65
2021/06/23 02:16:05;;;;;;;5.30;2.88;;;21.10;70.50;;;;;;5055446;28;20107;-65
2021/06/23 02:18:31;;;;;;;7.93;2.90;;;21.10;70.50;;;;;;5037165;28;20025;-65
2021/06/23 02:20:58;;;;;;;4.80;2.50;;;21.10;70.50;;;;;;5055243;28;20024;-65
2021/06/23 02:23:24;;;;;;;5.65;2.90;;;21.10;70.50;;;;;;5054781;28;20503;-65
2021/06/23 02:25:50;;;;;;;7.13;3.00;;;21.10;70.50;;;;;;5055269;28;20033;-67
2021/06/23 02:28:17;;;;;;;6.93;3.00;;;21.10;70.60;;;;;;5055013;28;20047;-66
2021/06/23 02:30:42;;;;;;;6.00;3.03;;;21.10;70.60;;;;;;5054993;28;20029;-64
2021/06/23 02:33:10;;;;;;;6.15;2.92;;;21.10;70.60;;;;;;5055101;28;20505;-66
2021/06/23 02:35:38;;;;;;;6.40;2.90;;;21.10;70.60;;;;;;5055046;28;20025;-64
2021/06/23 02:38:05;;;;;;;5.40;2.95;;;21.10;70.60;;;;;;5054749;28;20024;-65
2021/06/23 02:40:32;;;;;;;5.80;2.60;;;21.10;70.60;;;;;;5054713;28;20060;-65
2021/06/23 02:42:58;;;;;;;7.78;2.83;;;21.10;70.70;;;;;;5050359;28;20028;-65
2021/06/23 02:45:25;;;;;;;5.05;2.80;;;21.10;70.70;;;;;;5036555;28;20421;-64
2021/06/23 02:47:51;;;;;;;5.38;2.90;;;21.10;70.70;;;;;;5054575;28;20032;-65
2021/06/23 02:50:16;;;;;;;5.70;2.90;;;21.10;70.80;;;;;;5054621;28;20025;-65
2021/06/23 02:52:42;;;;;;;4.07;2.58;;;21.00;70.70;;;;;;5036777;28;20043;-65
2021/06/23 02:55:08;;;;;;;6.00;2.85;;;21.00;70.80;;;;;;5054704;28;20036;-65
2021/06/23 02:57:34;;;;;;;6.15;2.78;;;21.00;70.80;;;;;;5032331;28;20518;-65
2021/06/23 03:00:00;;;;;;;4.55;2.60;;;21.00;70.80;;;;;;5047793;28;20104;-65
2021/06/23 03:02:26;;;;;;;6.05;2.90;;;21.00;70.90;;;;;;5054134;28;20403;-65
2021/06/23 03:04:52;;;;;;;5.55;2.72;;;21.00;70.80;;;;;;5054567;28;20029;-65
2021/06/23 03:07:18;;;;;;;3.92;2.60;;;21.00;70.80;;;;;;5054146;28;20032;-65
2021/06/23 03:09:44;;;;;;;5.13;2.55;;;21.00;70.90;;;;;;5054213;28;20025;-66
2021/06/23 03:12:14;;;;;;;4.85;2.40;;;21.00;70.90;;;;;;5054164;28;20470;-65
2021/06/23 03:14:41;;;;;;;7.17;2.90;;;21.00;70.80;;;;;;5054427;28;20036;-65
2021/06/23 03:17:06;;;;;;;6.50;2.92;;;21.00;71.00;;;;;;5036299;28;20317;-66
2021/06/23 03:19:33;;;;;;;5.45;2.55;;;21.00;71.10;;;;;;5054055;28;20433;-66
2021/06/23 03:22:08;;;;;;;6.57;2.90;;;21.00;71.20;;;;;;5054198;28;20013;-65
2021/06/23 03:24:37;;;;;;;5.75;2.70;;;21.00;71.40;;;;;;5053547;28;20578;-66
2021/06/23 03:27:03;;;;;;;5.15;2.70;;;21.00;71.30;;;;;;5053904;28;20025;-65
2021/06/23 03:29:32;;;;;;;5.43;2.70;;;20.90;71.30;;;;;;5054112;28;20107;-65
2021/06/23 03:31:58;;;;;;;6.43;3.00;;;21.00;71.40;;;;;;5053908;28;20529;-65
2021/06/23 03:34:24;;;;;;;5.07;2.50;;;20.90;71.40;;;;;;5053994;28;20024;-64
2021/06/23 03:36:50;;;;;;;6.03;2.60;;;21.00;71.40;;;;;;5053462;28;20087;-66
2021/06/23 03:39:16;;;;;;;4.00;2.50;;;21.00;71.40;;;;;;5053414;28;20028;-66
2021/06/23 03:41:42;;;;;;;5.05;2.50;;;21.00;71.50;;;;;;5053853;28;20043;-65
2021/06/23 03:44:07;;;;;;;4.93;2.50;;;21.00;71.50;;;;;;5035909;28;20111;-65
2021/06/23 03:46:33;;;;;;;5.45;2.70;;;20.90;71.40;;;;;;5053658;28;20063;-65
2021/06/23 03:48:58;;;;;;;6.28;2.80;;;21.00;71.50;;;;;;5035624;28;20036;-66
2021/06/23 03:51:24;;;;;;;4.95;2.45;;;21.00;71.50;;;;;;5053559;28;20096;-65
2021/06/23 03:53:50;;;;;;;5.10;2.70;;;20.90;71.40;;;;;;5053520;28;20056;-65
2021/06/23 03:56:16;;;;;;;5.88;2.60;;;20.90;71.50;;;;;;5035652;28;20502;-64
2021/06/23 03:58:42;;;;;;;5.40;2.20;;;20.90;71.50;;;;;;5053131;28;20033;-65
2021/06/23 04:01:09;;;;;;;3.83;2.00;;;20.90;71.50;;;;;;5035359;28;20017;-65
2021/06/23 04:03:35;;;;;;;4.72;2.22;;;20.90;71.40;;;;;;5052588;28;20047;-66
2021/06/23 04:06:00;;;;;;;5.60;2.53;;;20.90;71.50;;;;;;5032947;28;20554;-64
2021/06/23 04:08:26;;;;;;;4.63;2.35;;;20.90;71.60;;;;;;5043586;28;20025;-64
2021/06/23 04:10:52;;;;;;;5.18;2.70;;;20.90;71.50;;;;;;5045378;28;20034;-64
2021/06/23 04:13:18;;;;;;;5.15;2.53;;;20.90;71.60;;;;;;5033332;28;20091;-65
2021/06/23 04:15:44;;;;;;;4.97;2.33;;;20.90;71.60;;;;;;5042855;28;20025;-65
2021/06/23 04:18:09;;;;;;;6.88;3.10;;;20.90;71.70;;;;;;5034136;28;20090;-64
2021/06/23 04:20:35;;;;;;;9.43;4.00;;;21.00;72.00;;;;;;5046142;28;20060;-64
2021/06/23 04:23:00;;;;;;;10.55;3.80;;;21.00;72.60;;;;;;5045682;28;20036;-63
2021/06/23 04:25:26;;;;;;;9.80;3.83;;;21.00;72.90;;;;;;5027307;28;20029;-65
2021/06/23 04:27:52;;;;;;;7.47;3.15;;;21.00;73.00;;;;;;5008332;28;20042;-64
2021/06/23 04:30:18;;;;;;;9.02;2.90;;;21.00;73.00;;;;;;5026662;28;20080;-64
2021/06/23 04:32:44;;;;;;;6.20;2.70;;;21.00;73.00;;;;;;5008451;28;20498;-64
2021/06/23 04:35:11;;;;;;;7.25;2.67;;;21.00;73.00;;;;;;5033437;28;20635;-67
2021/06/23 04:37:38;;;;;;;5.60;2.20;;;21.00;73.00;;;;;;5045758;28;20029;-64
2021/06/23 04:40:06;;;;;;;6.80;2.80;;;21.00;73.00;;;;;;5045935;28;20040;-61
2021/06/23 04:42:32;;;;;;;5.60;2.33;;;21.00;73.00;;;;;;5044407;28;20033;-65
2021/06/23 04:44:57;;;;;;;6.15;2.75;;;21.00;73.10;;;;;;5014037;28;20742;-64
2021/06/23 04:47:23;;;;;;;4.70;2.30;;;21.00;72.90;;;;;;5037124;28;20064;-66
2021/06/23 04:49:48;;;;;;;7.00;2.80;;;21.00;72.80;;;;;;5038871;28;20153;-65
2021/06/23 04:52:14;;;;;;;10.02;3.88;;;21.00;73.00;;;;;;5045479;28;20029;-66
2021/06/23 04:54:40;;;;;;;9.98;3.38;;;21.00;73.10;;;;;;5028146;28;20140;-64
2021/06/23 04:57:06;;;;;;;9.00;2.63;;;21.00;73.40;;;;;;5035764;28;20029;-65
2021/06/23 04:59:31;;;;;;;8.05;3.22;;;21.00;73.60;;;;;;5023912;28;20044;-65
2021/06/23 05:01:57;;;;;;;7.68;3.17;;;21.00;73.10;;;;;;5021224;28;20780;-65
2021/06/23 05:04:22;;;;;;;10.00;2.80;;;21.00;73.10;;;;;;5030935;28;20041;-68
2021/06/23 05:06:48;;;;;;;8.30;2.42;;;21.00;73.10;;;;;;5030879;28;20033;-64
2021/06/23 05:09:13;;;;;;;15.57;3.13;;;21.00;72.90;;;;;;5039437;28;20033;-67
2021/06/23 05:11:39;;;;;;;11.77;2.90;;;21.10;74.50;;;;;;5027201;28;20397;-67
2021/06/23 05:14:06;;;;;;;7.45;2.45;;;21.10;74.70;;;;;;5045526;28;20652;-66
2021/06/23 05:16:33;;;;;;;7.10;2.60;;;21.10;74.90;;;;;;5045550;28;20033;-63
2021/06/23 05:18:59;;;;;;;9.18;2.20;;;21.10;74.40;;;;;;5026986;28;20799;-66
2021/06/23 05:21:25;;;;;;;11.10;2.88;;;21.10;73.40;;;;;;5045170;28;20025;-65
2021/06/23 05:23:50;;;;;;;9.02;2.80;;;21.20;72.90;;;;;;5027289;28;20033;-65
2021/06/23 05:26:16;;;;;;;10.30;2.95;;;21.20;73.10;;;;;;5045585;28;20482;-64
2021/06/23 05:28:42;;;;;;;8.70;2.50;;;21.10;73.10;;;;;;5027199;28;20057;-62
2021/06/23 05:31:07;;;;;;;8.80;2.47;;;21.10;73.00;;;;;;5044549;28;20075;-67
2021/06/23 05:33:33;;;;;;;13.77;2.50;;;21.10;72.40;;;;;;5043962;28;20036;-66
2021/06/23 05:35:59;;;;;;;10.40;2.40;;;21.10;72.00;;;;;;5039780;28;20528;-62
2021/06/23 05:38:25;;;;;;;8.68;2.33;;;21.00;72.10;;;;;;5045169;28;20033;-65
2021/06/23 05:40:50;;;;;;;7.22;2.20;;;21.10;72.20;;;;;;5026707;28;20104;-66
2021/06/23 05:43:16;;;;;;;13.50;3.08;;;21.00;72.10;;;;;;5021343;28;20129;-65
2021/06/23 05:45:42;;;;;;;7.63;2.50;;;20.90;64.30;;;;;;5015906;28;20024;-67
2021/06/23 05:48:08;;;;;;;8.70;2.30;;;20.70;67.40;;;;;;5017800;28;20014;-72
2021/06/23 05:50:34;;;;;;;7.13;2.33;;;20.70;67.70;;;;;;5022196;28;20025;-71
2021/06/23 05:52:59;;;;;;;11.10;2.30;;;20.80;66.70;;;;;;5027899;28;20039;-66
2021/06/23 05:55:25;;;;;;;10.73;2.60;;;20.80;65.50;;;;;;5053050;28;20025;-65
2021/06/23 05:57:52;;;;;;;9.25;2.35;;;20.80;64.20;;;;;;5051204;28;20037;-65
2021/06/23 06:00:19;;;;;;;7.38;2.22;;;20.60;63.10;;;;;;5033518;28;20029;-66
2021/06/23 06:02:45;;;;;;;8.20;2.42;;;20.40;63.40;;;;;;5033611;28;20021;-65
2021/06/23 06:05:11;;;;;;;8.55;2.35;;;20.40;62.50;;;;;;5033572;28;20017;-66
2021/06/23 06:07:36;;;;;;;10.50;2.45;;;20.30;64.80;;;;;;5033275;28;20077;-67
2021/06/23 06:10:02;;;;;;;8.43;2.53;;;20.20;67.60;;;;;;5051386;28;20112;-64
2021/06/23 06:12:27;;;;;;;6.38;2.05;;;20.40;66.20;;;;;;5051294;28;20041;-65
2021/06/23 06:14:54;;;;;;;7.50;2.15;;;20.50;66.70;;;;;;5050121;28;20025;-65
2021/06/23 06:17:20;;;;;;;6.97;2.00;;;20.50;65.70;;;;;;5051060;28;20028;-65
2021/06/23 06:19:45;;;;;;;7.78;2.45;;;20.60;66.70;;;;;;5051176;28;20025;-64
2021/06/23 06:22:11;;;;;;;7.72;2.47;;;20.60;67.00;;;;;;5051313;28;20021;-65
2021/06/23 06:24:37;;;;;;;6.43;2.33;;;20.60;66.50;;;;;;5033422;28;20029;-65
2021/06/23 06:27:03;;;;;;;9.27;2.50;;;20.60;66.40;;;;;;5049723;28;20027;-64
2021/06/23 06:29:29;;;;;;;6.03;2.10;;;20.30;62.90;;;;;;5051070;28;20037;-65
2021/06/23 06:31:54;;;;;;;7.60;2.58;;;20.30;66.80;;;;;;5033344;28;20025;-65
2021/06/23 06:34:20;;;;;;;8.40;2.88;;;20.30;65.00;;;;;;5050896;28;20458;-66
2021/06/23 06:36:45;;;;;;;8.65;2.33;;;20.10;65.60;;;;;;5051102;28;20029;-65
2021/06/23 06:39:11;;;;;;;8.25;2.60;;;20.00;65.30;;;;;;5050805;28;20033;-65
2021/06/23 06:41:36;;;;;;;8.40;2.67;;;19.90;64.80;;;;;;5051101;28;20032;-65
2021/06/23 06:44:02;;;;;;;7.28;2.55;;;19.70;65.60;;;;;;5033166;28;20029;-66
2021/06/23 06:46:27;;;;;;;8.75;2.30;;;19.70;65.80;;;;;;5051684;28;20028;-67
2021/06/23 06:48:53;;;;;;;7.07;2.30;;;19.70;64.80;;;;;;5054546;28;20036;-65
2021/06/23 06:51:18;;;;;;;5.00;1.88;;;19.80;64.70;;;;;;5054746;28;20390;-65
2021/06/23 06:53:44;;;;;;;7.80;2.20;;;19.80;65.90;;;;;;5054771;28;20111;-66
2021/06/23 06:56:09;;;;;;;7.13;2.60;;;19.80;65.30;;;;;;5054742;28;20106;-65
2021/06/23 06:58:35;;;;;;;7.18;2.45;;;19.80;64.60;;;;;;5036407;28;20440;-65
2021/06/23 07:01:00;;;;;;;5.65;2.08;;;19.90;64.50;;;;;;5054623;28;20029;-65
2021/06/23 07:03:26;;;;;;;5.85;2.00;;;19.80;67.30;;;;;;5036691;28;20031;-66
2021/06/23 07:05:51;;;;;;;6.07;2.03;;;19.80;65.70;;;;;;5054603;28;20478;-65
2021/06/23 07:08:17;;;;;;;5.47;1.88;;;20.00;65.30;;;;;;5054243;28;20100;-63
2021/06/23 07:10:43;;;;;;;5.13;1.85;;;20.10;66.50;;;;;;5054385;28;20115;-65
2021/06/23 07:13:08;;;;;;;5.47;1.80;;;20.20;66.10;;;;;;5054271;28;20032;-67
2021/06/23 07:15:34;;;;;;;5.90;2.10;;;20.20;65.50;;;;;;5054388;28;20406;-65
2021/06/23 07:17:59;;;;;;;8.65;2.35;;;20.30;64.40;;;;;;5036029;28;20040;-65
2021/06/23 07:20:25;;;;;;;7.35;2.47;;;20.30;63.50;;;;;;5054118;28;20055;-65
2021/06/23 07:22:50;;;;;;;4.20;1.67;;;20.20;63.90;;;;;;5036302;28;20113;-67
2021/06/23 07:25:16;;;;;;;7.28;2.17;;;20.20;67.40;;;;;;5054188;28;20117;-64
2021/06/23 07:27:42;;;;;;;8.55;2.95;;;20.30;64.00;;;;;;5053835;28;20525;-65
2021/06/23 07:30:09;;;;;;;5.93;2.25;;;20.30;63.70;;;;;;5054225;28;20025;-63
2021/06/23 07:32:42;;;;;;;5.75;2.00;;;20.40;64.50;;;;;;5054182;28;20481;-65
2021/06/23 07:37:52;;;;;;;6.75;2.22;;;20.50;63.40;;;;;;5053717;28;20294;-66
2021/06/23 07:40:19;;;;;;;7.38;2.70;;;20.60;66.20;;;;;;5053621;28;20112;-62
2021/06/23 07:42:45;;;;;;;4.47;1.98;;;20.60;65.70;;;;;;5036001;28;20547;-65
2021/06/23 07:45:12;;;;;;;6.00;2.33;;;20.60;66.60;;;;;;5035962;28;20024;-65
2021/06/23 07:47:39;;;;;;;7.95;2.42;;;20.50;65.90;;;;;;5035510;28;20398;-63
2021/06/23 07:50:06;;;;;;;5.95;2.58;;;20.50;63.80;;;;;;5035668;28;20402;-64
2021/06/23 07:52:42;;;;;;;7.22;2.08;;;20.50;63.80;;;;;;5053728;28;20025;-65
2021/06/23 08:11:37;;;;;;;5.13;2.28;;;20.50;64.50;;;;;;4991732;28;20038;-65
2021/06/23 08:14:04;;;;;;;5.47;2.08;;;20.50;63.90;;;;;;5041487;28;20078;-63
2021/06/23 08:16:32;;;;;;;5.63;2.30;;;20.60;64.00;;;;;;5053247;28;20151;-64
2021/06/23 08:18:57;;;;;;;6.53;2.58;;;20.60;64.10;;;;;;5052886;28;20070;-65
2021/06/23 08:21:23;;;;;;;9.40;2.17;;;20.60;63.50;;;;;;5052924;28;20068;-66
2021/06/23 08:23:48;;;;;;;6.25;2.78;;;20.70;63.70;;;;;;5035290;28;20175;-66
2021/06/23 08:26:15;;;;;;;7.35;2.83;;;20.70;62.00;;;;;;5035427;28;20056;-65
2021/06/23 08:28:41;;;;;;;7.82;2.97;;;20.60;63.90;;;;;;5052722;28;20483;-65
2021/06/23 08:31:06;;;;;;;8.80;2.67;;;20.60;63.20;;;;;;5052836;28;20017;-65
2021/06/23 08:33:32;;;;;;;13.40;2.60;;;20.60;62.80;;;;;;5052570;28;20064;-65
2021/06/23 08:35:57;;;;;;;5.07;2.22;;;20.60;62.90;;;;;;5034997;28;20029;-65
2021/06/23 08:38:23;;;;;;;6.35;2.53;;;20.80;63.90;;;;;;5052678;28;20021;-65
2021/06/23 08:40:49;;;;;;;7.07;2.50;;;20.80;63.80;;;;;;5034704;28;20036;-66
2021/06/23 08:43:17;;;;;;;5.78;2.10;;;20.80;64.60;;;;;;5034774;28;20021;-65
2021/06/23 08:45:42;;;;;;;5.60;2.42;;;20.90;63.90;;;;;;5052645;28;20398;-65
2021/06/23 08:48:09;;;;;;;9.50;3.08;;;20.90;62.30;;;;;;5052229;28;20021;-66
2021/06/23 08:50:35;;;;;;;8.80;2.80;;;20.90;61.40;;;;;;5034672;28;20099;-66
2021/06/23 08:53:01;;;;;;;7.30;2.30;;;21.00;62.10;;;;;;5052507;28;20064;-67
2021/06/23 08:55:26;;;;;;;7.50;2.67;;;21.00;64.10;;;;;;5052519;28;20052;-65
2021/06/23 08:57:52;;;;;;;8.27;2.55;;;21.10;61.60;;;;;;5034284;28;20033;-65
2021/06/23 09:00:20;;;;;;;5.00;2.35;;;21.20;61.80;;;;;;5052247;28;20119;-66
2021/06/23 09:02:46;;;;;;;7.15;2.63;;;21.20;61.90;;;;;;5052269;28;20104;-66
2021/06/23 09:05:14;;;;;;;7.10;2.40;;;21.20;62.60;;;;;;5052410;28;20025;-65
2021/06/23 09:07:57;;;;;;;6.97;2.42;;;21.30;62.00;;;;;;5051970;28;20071;-66
2021/06/23 09:10:23;;;;;;;8.30;2.67;;;21.30;63.10;;;;;;5051882;28;20031;-66
2021/06/23 09:13:01;;;;;;;5.65;2.65;;;21.40;60.50;;;;;;5052282;28;20025;-65
2021/06/23 09:15:38;;;;;;;5.65;1.80;;;21.50;62.30;;;;;;5034185;28;20550;-66
2021/06/23 09:18:18;;;;;;;4.45;1.55;;;21.90;64.10;;;;;;5051964;28;20036;-66
2021/06/23 09:20:45;;;;;;;3.70;1.38;;;22.40;62.80;;;;;;5052032;28;20521;-66
2021/06/23 09:23:12;;;;;;;2.60;1.20;;;22.70;61.70;;;;;;5052024;28;20037;-65
2021/06/23 09:25:39;;;;;;;6.68;1.60;;;22.80;60.80;;;;;;5051869;28;20048;-64
2021/06/23 09:28:12;;;;;;;5.88;2.22;;;22.80;59.80;;;;;;5051649;28;20394;-66
2021/06/23 09:30:40;;;;;;;3.08;1.38;;;22.70;58.60;;;;;;5033940;28;20482;-65
2021/06/23 09:33:07;;;;;;;2.80;1.10;;;22.80;60.70;;;;;;5033936;28;20033;-65
2021/06/23 09:35:33;;;;;;;3.45;1.45;;;23.00;60.00;;;;;;5051480;28;20032;-65
2021/06/23 09:37:58;;;;;;;3.22;1.30;;;23.10;59.40;;;;;;5033614;28;20029;-66
2021/06/23 09:40:28;;;;;;;3.83;1.42;;;23.30;59.70;;;;;;5051474;28;20531;-66
2021/06/23 09:43:01;;;;;;;3.45;1.63;;;23.30;59.70;;;;;;5051717;28;20389;-65
2021/06/23 09:45:29;;;;;;;3.95;1.38;;;23.30;59.70;;;;;;5051661;28;20090;-64
2021/06/23 09:48:03;;;;;;;4.97;1.65;;;23.30;59.90;;;;;;5033502;28;20029;-65
2021/06/23 09:50:31;;;;;;;4.88;1.40;;;23.40;59.10;;;;;;5051618;28;20060;-65
2021/06/23 09:53:03;;;;;;;2.95;1.40;;;23.50;59.10;;;;;;5051637;28;20029;-65
2021/06/23 09:55:43;;;;;;;2.95;1.20;;;23.50;58.90;;;;;;5051642;28;20028;-64
2021/06/23 09:58:19;;;;;;;3.47;1.40;;;23.50;58.70;;;;;;5051196;28;20025;-64
2021/06/23 10:01:09;;;;;;;3.05;1.35;;;23.60;58.70;;;;;;5051342;28;20506;-66
2021/06/23 10:03:55;;;;;;;2.55;1.20;;;23.60;58.70;;;;;;5033769;28;20071;-66
2021/06/23 10:06:23;;;;;;;3.83;1.60;;;23.60;58.60;;;;;;5051505;28;20438;-65
2021/06/23 10:08:50;;;;;;;4.20;1.60;;;23.70;58.40;;;;;;5051166;28;20025;-65
2021/06/23 10:11:30;;;;;;;4.32;1.60;;;23.70;58.50;;;;;;5051309;28;20433;-65
2021/06/23 10:13:55;;;;;;;3.20;1.55;;;23.70;58.40;;;;;;5033570;28;20035;-67
2021/06/23 10:16:25;;;;;;;3.70;1.60;;;23.80;58.30;;;;;;5033516;28;20025;-65
2021/06/23 10:18:55;;;;;;;4.97;1.70;;;23.70;58.20;;;;;;5033111;28;20028;-65
2021/06/23 10:21:22;;;;;;;3.83;1.55;;;23.70;58.30;;;;;;5051560;28;20021;-65
2021/06/23 10:23:49;;;;;;;3.78;1.48;;;23.60;58.50;;;;;;5037466;28;20017;-66
2021/06/23 10:26:16;;;;;;;4.93;1.88;;;23.60;58.60;;;;;;5055245;28;20033;-65
2021/06/23 10:28:45;;;;;;;4.28;1.90;;;23.50;57.80;;;;;;5054905;28;20040;-66
2021/06/23 10:31:11;;;;;;;3.42;1.80;;;23.50;58.20;;;;;;5055176;28;20025;-66
2021/06/23 10:33:38;;;;;;;3.15;1.60;;;23.60;58.50;;;;;;5054823;28;20028;-65
2021/06/23 10:36:05;;;;;;;3.85;1.63;;;23.70;58.30;;;;;;5055187;28;20017;-65
2021/06/23 10:38:32;;;;;;;3.85;1.48;;;23.70;58.50;;;;;;5054814;28;20066;-66
2021/06/23 10:40:59;;;;;;;5.45;1.88;;;23.70;58.50;;;;;;5054813;28;20032;-66
2021/06/23 10:43:24;;;;;;;5.05;1.98;;;23.60;58.30;;;;;;5037081;28;20128;-66
2021/06/23 10:45:50;;;;;;;5.28;1.73;;;23.50;58.70;;;;;;5054937;28;20104;-66
2021/06/23 10:48:15;;;;;;;3.55;1.80;;;23.60;58.20;;;;;;5054591;28;20147;-65
2021/06/23 10:50:41;;;;;;;4.60;1.90;;;23.70;58.20;;;;;;5055048;28;20025;-66
2021/06/23 10:53:35;;;;;;;5.70;2.05;;;23.80;58.20;;;;;;5037042;28;20025;-66
2021/06/23 10:56:04;;;;;;;4.18;1.80;;;23.70;58.30;;;;;;5054785;28;20025;-66
2021/06/23 10:58:34;;;;;;;4.63;2.05;;;23.80;58.00;;;;;;5054220;28;20021;-66
2021/06/23 11:01:26;;;;;;;4.72;2.25;;;23.80;58.00;;;;;;5054602;28;20049;-66
2021/06/23 11:04:00;;;;;;;3.85;2.00;;;23.80;57.90;;;;;;5034789;28;20033;-65
2021/06/23 11:06:37;;;;;;;4.15;1.85;;;23.80;58.00;;;;;;5054581;28;20024;-65
2021/06/23 11:09:23;;;;;;;4.22;1.63;;;23.80;58.00;;;;;;5054233;28;20558;-65
2021/06/23 11:11:49;;;;;;;6.50;2.30;;;23.90;57.90;;;;;;5036525;28;20025;-65
2021/06/23 11:14:16;;;;;;;3.92;2.08;;;23.90;57.80;;;;;;5036422;28;20406;-65
2021/06/23 11:16:42;;;;;;;3.42;1.88;;;24.00;57.70;;;;;;5054299;28;20482;-66
2021/06/23 11:19:08;;;;;;;4.85;1.85;;;24.00;57.60;;;;;;5053995;28;20029;-66
2021/06/23 11:21:34;;;;;;;4.20;2.08;;;23.80;57.70;;;;;;5054224;28;20386;-66
2021/06/23 11:24:02;;;;;;;6.93;2.10;;;23.80;57.90;;;;;;5036332;28;20036;-65
2021/06/23 11:26:27;;;;;;;5.03;2.20;;;23.80;58.10;;;;;;5054140;28;20491;-65
2021/06/23 11:28:54;;;;;;;5.45;2.20;;;23.80;58.20;;;;;;5053943;28;20032;-65
2021/06/23 11:31:21;;;;;;;4.70;2.42;;;23.80;58.30;;;;;;5054003;28;20025;-65
2021/06/23 11:33:57;;;;;;;4.18;2.00;;;23.80;58.50;;;;;;5053534;28;20031;-65
2021/06/23 11:36:24;;;;;;;4.57;1.83;;;23.70;58.30;;;;;;5053974;28;20514;-66
2021/06/23 11:38:54;;;;;;;5.93;2.40;;;23.60;58.70;;;;;;5035714;28;20060;-65
2021/06/23 11:41:20;;;;;;;5.25;2.20;;;23.60;58.60;;;;;;5053765;28;20055;-66
2021/06/23 11:43:47;;;;;;;3.85;1.80;;;23.60;58.50;;;;;;5053757;28;20033;-67
2021/06/23 11:46:13;;;;;;;4.78;2.08;;;23.60;58.80;;;;;;5035949;28;20115;-65
2021/06/23 11:48:40;;;;;;;3.20;2.00;;;23.60;59.00;;;;;;5035626;28;20427;-65
2021/06/23 11:51:06;;;;;;;5.05;2.22;;;23.60;58.80;;;;;;5053676;28;20028;-66
2021/06/23 11:53:32;;;;;;;5.07;2.30;;;23.60;58.70;;;;;;5053647;28;20123;-65
2021/06/23 11:55:58;;;;;;;4.35;2.15;;;23.50;59.10;;;;;;5037078;28;20029;-65
2021/06/23 11:58:23;;;;;;;5.22;2.60;;;23.40;59.30;;;;;;5053253;28;20075;-65
2021/06/23 12:00:49;;;;;;;4.07;2.00;;;23.40;59.00;;;;;;5053392;28;20086;-64
2021/06/23 12:03:17;;;;;;;4.22;2.10;;;23.50;59.20;;;;;;5053540;28;20096;-66
2021/06/23 12:05:44;;;;;;;5.00;2.38;;;23.50;59.00;;;;;;5053422;28;20377;-65
2021/06/23 12:08:11;;;;;;;5.03;2.50;;;23.60;59.00;;;;;;5053077;28;20021;-65
2021/06/23 12:10:38;;;;;;;5.40;2.40;;;23.50;59.30;;;;;;5053260;28;20033;-65
2021/06/23 12:13:04;;;;;;;5.15;2.60;;;23.40;59.10;;;;;;5053208;28;20017;-65
2021/06/23 12:15:31;;;;;;;3.88;2.25;;;23.40;58.70;;;;;;5053238;28;20028;-65
2021/06/23 12:18:02;;;;;;;4.63;2.10;;;23.40;59.40;;;;;;5052892;28;20096;-66
2021/06/23 12:20:30;;;;;;;4.85;2.45;;;23.40;59.50;;;;;;5053045;28;20031;-65
2021/06/23 12:23:01;;;;;;;5.40;2.38;;;23.40;59.70;;;;;;5053587;28;20017;-65
2021/06/23 12:25:38;;;;;;;5.20;2.33;;;23.30;59.50;;;;;;5052967;28;20028;-65
2021/06/23 12:28:04;;;;;;;5.05;2.28;;;23.40;59.70;;;;;;5052781;28;20030;-66
2021/06/23 12:30:30;;;;;;;5.30;2.40;;;23.40;59.60;;;;;;5035041;28;20559;-66
2021/06/23 12:32:58;;;;;;;4.32;2.40;;;23.40;59.40;;;;;;5052955;28;20032;-65
2021/06/23 12:35:25;;;;;;;6.97;2.45;;;23.50;59.30;;;;;;5034663;28;20056;-66
2021/06/23 12:37:50;;;;;;;3.88;2.20;;;23.50;59.50;;;;;;5052555;28;20425;-66
2021/06/23 12:40:16;;;;;;;4.88;2.33;;;23.50;59.50;;;;;;5052661;28;20040;-65
2021/06/23 12:42:42;;;;;;;5.85;2.50;;;23.40;59.70;;;;;;5034904;28;20025;-65
2021/06/23 12:45:08;;;;;;;4.05;2.10;;;23.30;59.80;;;;;;5052153;28;20024;-65
2021/06/23 12:47:34;;;;;;;5.22;2.30;;;23.40;59.70;;;;;;5052396;28;20029;-65
2021/06/23 12:50:00;;;;;;;5.10;2.45;;;23.30;59.90;;;;;;5034647;28;20028;-65
2021/06/23 12:52:25;;;;;;;5.18;2.42;;;23.20;59.80;;;;;;5034527;28;20032;-67
2021/06/23 12:54:51;;;;;;;5.40;2.72;;;23.30;59.80;;;;;;5052506;28;20024;-66
2021/06/23 12:57:16;;;;;;;3.65;2.15;;;23.40;59.80;;;;;;5052182;28;20502;-65
2021/06/23 12:59:42;;;;;;;6.82;2.47;;;23.40;59.80;;;;;;5052251;28;20037;-66
2021/06/23 13:02:08;;;;;;;3.95;2.08;;;23.40;59.80;;;;;;5034515;28;20017;-66
2021/06/23 13:04:33;;;;;;;4.18;2.08;;;23.40;59.80;;;;;;5052298;28;20048;-66
2021/06/23 13:06:59;;;;;;;6.75;2.50;;;23.40;60.00;;;;;;5034102;28;20025;-66